Time;durP1;ratioP1;P1;durP2;ratioP2;P2;SDS_P1;SDS_P2;PMS_P1;PMS_P2;Temp;Humidity;BMP_temperature;BMP_pressure;BME280_temperature;BME280_humidity;BME280_pressure;Samples;Min_cycle;Max_cycle;Signal;HPM_P1;HPM_P2
2022/09/27 00:02:06;;;;;;;7.43;1.67;;;;;;;;;;5047869;28;20044;-64
2022/09/27 00:04:32;;;;;;;8.07;1.37;;;;;;;;;;5048480;28;20049;-64
2022/09/27 00:06:58;;;;;;;11.80;1.57;;;;;;;;;;5047958;28;20041;-64
2022/09/27 00:09:24;;;;;;;8.00;1.57;;;;;;;;;;5047146;28;20111;-63
2022/09/27 00:11:50;;;;;;;10.17;2.07;;;;;;;;;;5047687;28;20053;-63
2022/09/27 00:14:16;;;;;;;7.07;1.40;;;;;;;;;;5047682;28;20048;-63
2022/09/27 00:16:43;;;;;;;9.53;1.50;;;;;;;;;;5047552;28;20045;-64
2022/09/27 00:19:13;;;;;;;10.53;2.23;;;;;;;;;;5047700;28;20134;-64
2022/09/27 00:21:40;;;;;;;9.93;1.57;;;;;;;;;;5047329;28;20131;-64
2022/09/27 00:24:06;;;;;;;12.47;1.53;;;;;;;;;;5050279;28;20049;-63
2022/09/27 00:26:32;;;;;;;10.77;1.63;;;;;;;;;;5051468;28;20036;-64
2022/09/27 00:28:58;;;;;;;9.73;1.20;;;;;;;;;;5050148;28;20517;-64
2022/09/27 00:31:28;;;;;;;6.63;1.67;;;;;;;;;;5051083;28;20515;-63
2022/09/27 00:33:54;;;;;;;5.70;1.37;;;;;;;;;;5051379;28;20516;-63
2022/09/27 00:36:21;;;;;;;6.50;1.30;;;;;;;;;;5051198;28;20068;-64
2022/09/27 00:38:48;;;;;;;7.87;1.40;;;;;;;;;;5051379;28;20159;-63
2022/09/27 00:41:15;;;;;;;10.27;1.47;;;;;;;;;;5051535;28;20037;-64
2022/09/27 00:43:49;;;;;;;6.67;1.30;;;;;;;;;;5051207;28;20148;-64
2022/09/27 00:46:19;;;;;;;9.53;2.13;;;;;;;;;;5050356;28;20041;-64
2022/09/27 00:48:46;;;;;;;5.17;1.33;;;;;;;;;;5051378;28;20049;-64
2022/09/27 00:51:12;;;;;;;3.93;1.33;;;;;;;;;;5050945;28;20041;-64
2022/09/27 00:53:48;;;;;;;6.67;0.87;;;;;;;;;;5051523;28;20410;-64
2022/09/27 00:56:21;;;;;;;5.27;1.00;;;;;;;;;;5051112;28;20055;-63
2022/09/27 00:58:47;;;;;;;;;;;;;;;;;;5051322;28;20051;-64
2022/09/27 01:01:13;;;;;;;8.43;1.23;;;;;;;;;;5050573;28;19924;-64
2022/09/27 01:04:02;;;;;;;9.07;1.30;;;;;;;;;;5051113;28;20049;-64
2022/09/27 01:06:28;;;;;;;4.17;1.10;;;;;;;;;;5042859;28;20053;-64
2022/09/27 01:08:54;;;;;;;5.20;1.50;;;;;;;;;;5050990;28;20098;-64
2022/09/27 01:11:26;;;;;;;6.87;1.20;;;;;;;;;;5050948;28;20053;-64
2022/09/27 01:13:52;;;;;;;11.43;1.67;;;;;;;;;;5050239;28;20083;-64
2022/09/27 01:16:23;;;;;;;3.47;0.87;;;;;;;;;;5050142;28;20084;-64
2022/09/27 01:18:49;;;;;;;7.47;1.30;;;;;;;;;;5050947;28;20047;-64
2022/09/27 01:21:37;;;;;;;5.50;1.20;;;;;;;;;;5049976;28;20128;-64
2022/09/27 01:24:12;;;;;;;7.07;1.07;;;;;;;;;;5050765;28;20186;-64
2022/09/27 01:26:47;;;;;;;6.03;1.00;;;;;;;;;;5050637;28;20131;-64
2022/09/27 01:29:39;;;;;;;7.13;0.97;;;;;;;;;;5049865;28;21307;-64
2022/09/27 01:32:17;;;;;;;4.57;1.13;;;;;;;;;;5050178;28;20079;-64
2022/09/27 01:34:45;;;;;;;9.97;1.70;;;;;;;;;;5048462;28;20053;-64
2022/09/27 01:37:32;;;;;;;7.67;1.60;;;;;;;;;;5050042;28;20052;-64
2022/09/27 01:40:07;;;;;;;6.20;1.10;;;;;;;;;;5050234;28;20099;-64
2022/09/27 01:42:52;;;;;;;7.43;1.50;;;;;;;;;;5050004;28;20052;-64
2022/09/27 01:45:27;;;;;;;4.73;1.10;;;;;;;;;;5049658;28;20102;-64
2022/09/27 01:48:04;;;;;;;6.40;1.10;;;;;;;;;;5050127;28;20045;-64
2022/09/27 01:50:33;;;;;;;8.10;1.50;;;;;;;;;;5050477;28;20094;-64
2022/09/27 01:53:04;;;;;;;5.17;1.07;;;;;;;;;;5050203;28;20479;-64
2022/09/27 01:55:32;;;;;;;7.17;1.10;;;;;;;;;;5049563;28;20133;-64
2022/09/27 01:58:00;;;;;;;5.60;1.33;;;;;;;;;;5050297;28;20053;-64
2022/09/27 02:00:26;;;;;;;4.20;0.90;;;;;;;;;;5049312;28;20136;-64
2022/09/27 02:03:25;;;;;;;6.17;1.07;;;;;;;;;;5050167;28;20546;-64
2022/09/27 02:05:56;;;;;;;6.17;1.30;;;;;;;;;;5016515;28;20056;-64
2022/09/27 02:08:40;;;;;;;6.43;1.30;;;;;;;;;;5049746;28;20056;-64
2022/09/27 02:11:06;;;;;;;;;;;;;;;;;;5050430;28;20056;-64
2022/09/27 02:13:35;;;;;;;6.00;0.90;;;;;;;;;;5047439;28;19927;-64
2022/09/27 02:16:20;;;;;;;7.17;1.20;;;;;;;;;;5029649;28;20422;-64
2022/09/27 02:18:49;;;;;;;4.10;0.87;;;;;;;;;;5029538;28;20356;-64
2022/09/27 02:21:17;;;;;;;7.57;1.10;;;;;;;;;;5029237;28;20133;-64
2022/09/27 02:23:48;;;;;;;3.77;0.50;;;;;;;;;;5030047;28;20041;-64
2022/09/27 02:26:32;;;;;;;4.97;0.80;;;;;;;;;;5029374;28;20049;-64
2022/09/27 02:29:14;;;;;;;7.93;1.90;;;;;;;;;;5044627;28;20437;-64
2022/09/27 02:31:40;;;;;;;5.57;0.97;;;;;;;;;;5048800;28;20045;-65
2022/09/27 02:34:27;;;;;;;4.67;0.80;;;;;;;;;;5049368;28;20136;-65
2022/09/27 02:36:54;;;;;;;3.87;0.70;;;;;;;;;;5049923;28;20041;-65
2022/09/27 02:39:21;;;;;;;5.00;0.90;;;;;;;;;;5049194;28;20106;-64
2022/09/27 02:41:47;;;;;;;16.50;2.47;;;;;;;;;;5049205;28;20048;-64
2022/09/27 02:44:14;;;;;;;4.97;0.90;;;;;;;;;;5048369;28;20132;-64
2022/09/27 02:46:40;;;;;;;7.00;1.07;;;;;;;;;;5047469;28;20045;-64
2022/09/27 02:49:09;;;;;;;9.00;1.50;;;;;;;;;;5049099;28;20048;-64
2022/09/27 02:51:54;;;;;;;3.70;0.73;;;;;;;;;;5049148;28;20967;-64
2022/09/27 02:54:35;;;;;;;7.00;1.50;;;;;;;;;;5048454;28;20183;-64
2022/09/27 02:57:19;;;;;;;8.67;1.20;;;;;;;;;;5048258;28;20039;-64
2022/09/27 02:59:45;;;;;;;3.60;0.57;;;;;;;;;;5049232;28;20052;-64
2022/09/27 03:02:18;;;;;;;7.77;1.53;;;;;;;;;;5048610;28;20041;-64
2022/09/27 03:04:47;;;;;;;2.72;1.13;;;;;;;;;;5048694;28;20439;-64
2022/09/27 03:07:14;;;;;;;3.90;0.60;;;;;;;;;;5049093;28;20052;-64
2022/09/27 03:09:43;;;;;;;3.67;1.63;;;;;;;;;;5048982;28;20107;-64
2022/09/27 03:12:09;;;;;;;4.90;0.93;;;;;;;;;;5048121;28;20049;-64
2022/09/27 03:14:35;;;;;;;4.77;0.60;;;;;;;;;;5049037;28;20048;-64
2022/09/27 03:17:01;;;;;;;2.70;0.40;;;;;;;;;;5048176;28;20044;-64
2022/09/27 03:19:27;;;;;;;3.93;0.70;;;;;;;;;;5048484;28;20179;-64
2022/09/27 03:21:53;;;;;;;2.33;0.50;;;;;;;;;;5048771;28;20187;-64
2022/09/27 03:24:19;;;;;;;6.30;0.60;;;;;;;;;;5048543;28;20045;-64
2022/09/27 03:26:45;;;;;;;1.43;0.60;;;;;;;;;;5048056;28;20045;-64
2022/09/27 03:29:11;;;;;;;1.90;0.53;;;;;;;;;;5048273;28;20487;-64
2022/09/27 03:31:38;;;;;;;3.77;0.50;;;;;;;;;;5047702;28;20077;-64
2022/09/27 03:34:04;;;;;;;3.17;0.67;;;;;;;;;;5047648;28;20446;-64
2022/09/27 03:36:30;;;;;;;3.10;0.70;;;;;;;;;;5048239;28;20045;-64
2022/09/27 03:38:57;;;;;;;4.43;0.73;;;;;;;;;;5048209;28;20041;-64
2022/09/27 03:41:23;;;;;;;4.07;0.50;;;;;;;;;;5047757;28;20045;-64
2022/09/27 03:43:49;;;;;;;3.63;0.50;;;;;;;;;;5048434;28;20045;-64
2022/09/27 03:46:15;;;;;;;6.90;0.80;;;;;;;;;;5047790;28;20037;-64
2022/09/27 03:48:41;;;;;;;1.90;0.50;;;;;;;;;;5048248;28;20079;-64
2022/09/27 03:51:11;;;;;;;4.57;0.60;;;;;;;;;;5048270;28;20431;-64
2022/09/27 03:53:37;;;;;;;3.47;0.77;;;;;;;;;;5048305;28;20045;-64
2022/09/27 03:56:03;;;;;;;1.50;0.50;;;;;;;;;;5047611;28;20164;-64
2022/09/27 03:58:29;;;;;;;6.10;1.00;;;;;;;;;;5049963;28;20076;-65
2022/09/27 04:00:55;;;;;;;9.37;1.40;;;;;;;;;;5052006;28;20498;-64
2022/09/27 04:03:21;;;;;;;7.07;1.10;;;;;;;;;;5052535;28;20136;-64
2022/09/27 04:05:47;;;;;;;4.93;0.70;;;;;;;;;;5052041;28;20426;-65
2022/09/27 04:08:13;;;;;;;7.37;1.00;;;;;;;;;;5052148;28;20048;-65
2022/09/27 04:10:39;;;;;;;11.57;1.57;;;;;;;;;;5035229;28;20042;-64
2022/09/27 04:13:05;;;;;;;7.43;1.77;;;;;;;;;;5031777;28;20492;-64
2022/09/27 04:15:31;;;;;;;2.87;0.80;;;;;;;;;;5032442;28;20045;-64
2022/09/27 04:17:57;;;;;;;2.67;0.70;;;;;;;;;;5032362;28;20049;-64
2022/09/27 04:20:23;;;;;;;4.73;1.17;;;;;;;;;;5031898;28;20045;-64
2022/09/27 04:22:50;;;;;;;3.97;1.03;;;;;;;;;;5030808;28;20372;-64
2022/09/27 04:25:16;;;;;;;7.03;0.83;;;;;;;;;;5047100;28;20075;-64
2022/09/27 04:27:45;;;;;;;1.97;0.70;;;;;;;;;;5051780;28;20099;-64
2022/09/27 04:30:12;;;;;;;11.07;1.93;;;;;;;;;;5047743;28;20044;-64
2022/09/27 04:32:46;;;;;;;3.77;1.03;;;;;;;;;;5044600;28;20048;-64
2022/09/27 04:37:57;;;;;;;6.60;1.20;;;;;;;;;;5051227;28;20049;-64
2022/09/27 04:40:23;;;;;;;4.63;0.70;;;;;;;;;;5051324;28;20111;-64
2022/09/27 04:42:49;;;;;;;3.77;0.90;;;;;;;;;;5051597;28;20056;-64
2022/09/27 04:45:16;;;;;;;4.13;0.93;;;;;;;;;;5050531;28;20053;-64
2022/09/27 04:47:46;;;;;;;5.07;2.13;;;;;;;;;;5051292;28;20100;-64
2022/09/27 04:50:12;;;;;;;3.90;1.00;;;;;;;;;;5051278;28;20044;-64
2022/09/27 04:52:39;;;;;;;8.60;0.97;;;;;;;;;;5051131;28;20037;-64
2022/09/27 04:55:05;;;;;;;4.30;1.00;;;;;;;;;;5050811;28;20272;-64
2022/09/27 04:57:32;;;;;;;5.23;0.90;;;;;;;;;;5049354;28;20036;-64
2022/09/27 04:59:59;;;;;;;5.80;0.97;;;;;;;;;;5049439;28;20055;-64
2022/09/27 05:02:26;;;;;;;12.53;1.10;;;;;;;;;;5049511;28;20114;-64
2022/09/27 05:04:52;;;;;;;3.53;0.90;;;;;;;;;;5048263;28;20123;-64
2022/09/27 05:07:18;;;;;;;13.47;1.87;;;;;;;;;;5034019;28;20044;-64
2022/09/27 05:09:44;;;;;;;9.93;1.10;;;;;;;;;;5048088;28;20088;-64
2022/09/27 05:12:12;;;;;;;5.83;1.80;;;;;;;;;;5049873;28;20049;-64
2022/09/27 05:14:39;;;;;;;9.53;1.30;;;;;;;;;;5051402;28;20052;-64
2022/09/27 05:17:06;;;;;;;3.93;1.10;;;;;;;;;;5050624;28;20260;-64
2022/09/27 05:19:33;;;;;;;12.53;1.43;;;;;;;;;;5049320;28;20517;-64
2022/09/27 05:21:59;;;;;;;7.37;0.90;;;;;;;;;;5030948;28;20380;-64
2022/09/27 05:24:26;;;;;;;9.03;1.50;;;;;;;;;;5030219;28;20103;-64
2022/09/27 05:26:53;;;;;;;8.83;1.77;;;;;;;;;;5041833;28;20457;-64
2022/09/27 05:29:19;;;;;;;5.43;0.90;;;;;;;;;;5041511;28;20091;-64
2022/09/27 05:31:46;;;;;;;4.57;1.13;;;;;;;;;;5050727;28;20052;-64
2022/09/27 05:34:12;;;;;;;3.67;1.10;;;;;;;;;;5050498;28;20098;-64
2022/09/27 05:36:38;;;;;;;6.97;1.20;;;;;;;;;;5050195;28;20461;-64
2022/09/27 05:39:05;;;;;;;7.10;1.40;;;;;;;;;;5050216;28;20235;-64
2022/09/27 05:41:32;;;;;;;9.63;1.47;;;;;;;;;;5047470;28;20940;-64
2022/09/27 05:43:58;;;;;;;7.40;1.67;;;;;;;;;;5044988;28;20399;-64
2022/09/27 05:46:24;;;;;;;4.40;1.17;;;;;;;;;;5030333;28;20507;-64
2022/09/27 05:48:50;;;;;;;4.10;1.17;;;;;;;;;;5029727;28;20033;-64
2022/09/27 05:51:18;;;;;;;6.83;1.40;;;;;;;;;;5029588;28;20044;-64
2022/09/27 05:53:44;;;;;;;7.83;1.80;;;;;;;;;;5028463;28;20053;-64
2022/09/27 05:56:10;;;;;;;8.13;1.93;;;;;;;;;;5046437;28;20041;-64
2022/09/27 05:58:36;;;;;;;8.80;1.70;;;;;;;;;;5050072;28;20049;-64
2022/09/27 06:01:02;;;;;;;5.53;1.13;;;;;;;;;;5048868;28;20499;-64
2022/09/27 06:03:28;;;;;;;10.20;1.93;;;;;;;;;;5049633;28;20055;-64
2022/09/27 06:05:54;;;;;;;7.93;1.40;;;;;;;;;;5049324;28;20056;-64
2022/09/27 06:08:20;;;;;;;6.67;1.60;;;;;;;;;;5049319;28;20470;-64
2022/09/27 06:10:46;;;;;;;7.30;1.30;;;;;;;;;;5048691;28;20128;-64
2022/09/27 06:13:14;;;;;;;10.37;1.50;;;;;;;;;;5049506;28;20049;-64
2022/09/27 06:15:40;;;;;;;12.03;2.70;;;;;;;;;;5031302;28;20464;-64
2022/09/27 06:18:11;;;;;;;8.43;2.17;;;;;;;;;;5048612;28;20045;-64
2022/09/27 06:20:38;;;;;;;5.57;1.20;;;;;;;;;;5029262;28;20534;-64
2022/09/27 06:23:08;;;;;;;10.73;1.90;;;;;;;;;;5029161;28;20495;-64
2022/09/27 06:25:35;;;;;;;9.97;1.40;;;;;;;;;;5044138;28;20053;-64
2022/09/27 06:28:02;;;;;;;6.87;1.80;;;;;;;;;;5048096;28;20049;-64
2022/09/27 06:30:28;;;;;;;5.73;1.53;;;;;;;;;;5045172;28;20546;-64
2022/09/27 06:33:01;;;;;;;8.80;1.73;;;;;;;;;;5047513;28;20426;-64
2022/09/27 06:35:28;;;;;;;8.27;1.83;;;;;;;;;;5046311;28;20057;-64
2022/09/27 06:37:54;;;;;;;14.83;3.43;;;;;;;;;;5029129;28;20132;-64
2022/09/27 06:40:21;;;;;;;5.43;1.50;;;;;;;;;;5044322;28;20430;-64
2022/09/27 06:42:48;;;;;;;9.47;1.37;;;;;;;;;;5048933;28;20141;-64
2022/09/27 06:45:14;;;;;;;6.63;1.50;;;;;;;;;;5046537;28;20053;-64
2022/09/27 06:47:42;;;;;;;7.50;1.30;;;;;;;;;;5043007;28;20053;-64
2022/09/27 06:50:08;;;;;;;6.77;1.57;;;;;;;;;;5048316;28;20059;-64
2022/09/27 06:52:35;;;;;;;7.33;1.37;;;;;;;;;;5038947;28;20519;-64
2022/09/27 06:55:02;;;;;;;7.93;1.60;;;;;;;;;;5045884;28;20052;-64
2022/09/27 07:00:25;;;;;;;5.70;1.40;;;;;;;;;;5028979;28;20049;-64
2022/09/27 07:02:52;;;;;;;5.73;1.23;;;;;;;;;;5034355;28;20494;-64
2022/09/27 07:05:18;;;;;;;10.73;1.63;;;;;;;;;;5017760;28;20098;-64
2022/09/27 07:07:44;;;;;;;3.87;1.00;;;;;;;;;;5031088;28;20057;-64
2022/09/27 07:10:10;;;;;;;3.93;0.90;;;;;;;;;;5043395;28;20598;-64
2022/09/27 07:12:36;;;;;;;2.77;0.70;;;;;;;;;;5039173;28;20050;-64
2022/09/27 07:15:03;;;;;;;3.60;1.27;;;;;;;;;;5035377;28;20419;-64
2022/09/27 07:17:29;;;;;;;5.43;0.80;;;;;;;;;;5028746;28;20038;-64
2022/09/27 07:19:55;;;;;;;3.30;0.80;;;;;;;;;;5042369;28;20600;-64
2022/09/27 07:22:22;;;;;;;6.67;1.00;;;;;;;;;;5035111;28;20059;-64
2022/09/27 07:24:48;;;;;;;4.13;0.83;;;;;;;;;;5029133;28;20060;-64
2022/09/27 07:27:14;;;;;;;9.90;1.47;;;;;;;;;;5026682;28;20487;-64
2022/09/27 07:29:41;;;;;;;3.70;0.67;;;;;;;;;;5028722;28;20523;-64
2022/09/27 07:32:07;;;;;;;2.17;0.60;;;;;;;;;;5035540;28;20055;-65
2022/09/27 07:34:33;;;;;;;4.50;1.43;;;;;;;;;;5046752;28;20045;-64
2022/09/27 07:37:00;;;;;;;4.83;0.80;;;;;;;;;;5041678;28;20447;-65
2022/09/27 07:39:26;;;;;;;3.93;0.80;;;;;;;;;;5028609;28;20056;-64
2022/09/27 07:41:52;;;;;;;4.50;0.77;;;;;;;;;;5027419;28;20049;-64
2022/09/27 07:44:18;;;;;;;4.90;1.10;;;;;;;;;;5027237;28;20084;-64
2022/09/27 07:46:44;;;;;;;2.73;0.60;;;;;;;;;;5035515;28;20081;-64
2022/09/27 07:49:10;;;;;;;1.87;0.47;;;;;;;;;;5045338;28;20582;-64
2022/09/27 07:51:36;;;;;;;2.67;0.83;;;;;;;;;;5027825;28;20060;-64
2022/09/27 07:54:02;;;;;;;2.57;0.97;;;;;;;;;;5046212;28;20098;-64
2022/09/27 07:56:29;;;;;;;2.67;0.80;;;;;;;;;;5045505;28;20454;-64
2022/09/27 07:58:55;;;;;;;7.13;0.60;;;;;;;;;;5041258;28;20046;-64
2022/09/27 08:01:21;;;;;;;2.83;0.43;;;;;;;;;;5037130;28;20044;-64
2022/09/27 08:03:47;;;;;;;1.97;0.33;;;;;;;;;;5047548;28;20127;-64
2022/09/27 08:06:13;;;;;;;5.37;0.57;;;;;;;;;;5032686;28;20052;-64
2022/09/27 08:08:40;;;;;;;3.63;0.43;;;;;;;;;;5047577;28;20056;-64
2022/09/27 08:11:14;;;;;;;3.57;0.40;;;;;;;;;;5040410;28;20057;-64
2022/09/27 08:13:40;;;;;;;2.37;0.40;;;;;;;;;;5044884;28;20041;-64
2022/09/27 08:16:06;;;;;;;5.77;0.50;;;;;;;;;;5033338;28;20041;-64
2022/09/27 08:18:32;;;;;;;1.77;0.30;;;;;;;;;;5044428;28;20069;-64
2022/09/27 08:20:59;;;;;;;2.00;0.50;;;;;;;;;;5045289;28;20457;-64
2022/09/27 08:23:25;;;;;;;2.50;0.50;;;;;;;;;;5046743;28;20049;-64
2022/09/27 08:25:57;;;;;;;2.50;0.67;;;;;;;;;;5028107;28;20068;-64
2022/09/27 08:28:23;;;;;;;2.63;0.80;;;;;;;;;;5041187;28;20052;-64
2022/09/27 08:30:50;;;;;;;4.00;0.60;;;;;;;;;;5037688;28;20132;-64
2022/09/27 08:33:16;;;;;;;5.60;0.60;;;;;;;;;;5038838;28;20049;-62
2022/09/27 08:35:42;;;;;;;2.13;0.50;;;;;;;;;;5033015;28;20469;-62
2022/09/27 08:38:09;;;;;;;6.33;0.60;;;;;;;;;;5028278;28;20045;-62
2022/09/27 08:40:44;;;;;;;5.17;0.50;;;;;;;;;;5038738;28;20060;-62
2022/09/27 08:43:28;;;;;;;0.27;0.20;;;;;;;;;;5041972;28;20127;-63
2022/09/27 08:45:54;;;;;;;3.97;0.60;;;;;;;;;;5034920;28;20057;-62
2022/09/27 08:48:20;;;;;;;1.70;0.50;;;;;;;;;;5047911;28;20063;-63
2022/09/27 08:50:48;;;;;;;3.07;0.50;;;;;;;;;;5048613;28;20052;-62
2022/09/27 08:53:14;;;;;;;6.07;0.50;;;;;;;;;;5049416;28;20455;-62
2022/09/27 08:55:41;;;;;;;2.57;0.50;;;;;;;;;;5048407;28;20044;-62
2022/09/27 08:58:36;;;;;;;2.37;0.40;;;;;;;;;;5046395;28;20416;-62
2022/09/27 09:01:07;;;;;;;2.07;0.50;;;;;;;;;;5034689;28;20060;-62
2022/09/27 09:03:35;;;;;;;5.20;0.47;;;;;;;;;;5033417;28;20032;-62
2022/09/27 09:06:20;;;;;;;3.67;0.33;;;;;;;;;;5048585;28;20049;-62
2022/09/27 09:09:12;;;;;;;2.00;0.40;;;;;;;;;;5048303;28;20068;-62
2022/09/27 09:14:55;;;;;;;3.03;0.60;;;;;;;;;;5048430;28;20455;-62
2022/09/27 09:17:35;;;;;;;3.60;0.37;;;;;;;;;;5049804;28;20114;-62
2022/09/27 09:20:01;;;;;;;2.37;0.30;;;;;;;;;;5041732;28;20056;-63
2022/09/27 09:22:47;;;;;;;0.70;0.13;;;;;;;;;;5048237;28;20044;-63
2022/09/27 09:25:21;;;;;;;3.77;0.60;;;;;;;;;;5036824;28;20052;-63
2022/09/27 09:27:47;;;;;;;8.20;0.50;;;;;;;;;;5044527;28;20055;-66
2022/09/27 09:30:24;;;;;;;7.47;0.40;;;;;;;;;;5041918;28;20087;-63
2022/09/27 09:32:50;;;;;;;3.40;0.40;;;;;;;;;;5032439;28;20060;-64
2022/09/27 09:35:21;;;;;;;3.70;0.33;;;;;;;;;;5050228;28;20053;-64
2022/09/27 09:37:52;;;;;;;3.07;0.40;;;;;;;;;;5043380;28;20091;-62
2022/09/27 09:40:28;;;;;;;2.43;0.30;;;;;;;;;;5039628;28;20041;-62
2022/09/27 09:43:23;;;;;;;5.07;0.40;;;;;;;;;;5045564;28;20071;-65
2022/09/27 09:45:51;;;;;;;3.27;0.53;;;;;;;;;;4991141;28;20130;-62
2022/09/27 09:48:35;;;;;;;2.43;0.83;;;;;;;;;;5048957;28;20064;-62
2022/09/27 09:51:06;;;;;;;3.33;0.30;;;;;;;;;;5046687;28;20144;-62
2022/09/27 09:53:32;;;;;;;3.17;0.57;;;;;;;;;;5038883;28;20099;-63
2022/09/27 09:56:17;;;;;;;4.13;0.40;;;;;;;;;;5029560;28;20483;-63
2022/09/27 09:58:48;;;;;;;2.47;0.40;;;;;;;;;;5029821;28;20148;-63
2022/09/27 10:01:21;;;;;;;2.30;0.40;;;;;;;;;;5029238;28;20089;-62
2022/09/27 10:03:48;;;;;;;2.03;0.30;;;;;;;;;;5038341;28;20430;-63
2022/09/27 10:06:14;;;;;;;2.93;0.37;;;;;;;;;;5043991;28;20041;-62
2022/09/27 10:08:41;;;;;;;2.83;0.83;;;;;;;;;;5030200;28;20123;-63
2022/09/27 10:11:13;;;;;;;2.97;0.40;;;;;;;;;;5033469;28;20056;-62
2022/09/27 10:13:39;;;;;;;0.80;0.40;;;;;;;;;;5041119;28;20094;-62
2022/09/27 10:16:07;;;;;;;3.47;0.50;;;;;;;;;;5047241;28;20049;-62
2022/09/27 10:18:34;;;;;;;2.97;0.53;;;;;;;;;;5049671;28;20056;-62
2022/09/27 10:21:02;;;;;;;4.13;0.50;;;;;;;;;;5049287;28;20199;-62
2022/09/27 10:23:29;;;;;;;3.80;0.80;;;;;;;;;;5049257;28;20489;-62
2022/09/27 10:26:02;;;;;;;1.43;0.30;;;;;;;;;;5048646;28;20491;-62
2022/09/27 10:28:31;;;;;;;;;;;;;;;;;;5049224;28;20048;-62
2022/09/27 10:30:58;;;;;;;2.57;0.50;;;;;;;;;;5049023;28;19921;-62
2022/09/27 10:33:24;;;;;;;1.43;0.40;;;;;;;;;;5048224;28;20103;-62
2022/09/27 10:35:50;;;;;;;8.10;1.03;;;;;;;;;;5049034;28;20098;-62
2022/09/27 10:38:33;;;;;;;3.20;0.50;;;;;;;;;;5049202;28;20045;-62
2022/09/27 10:41:19;;;;;;;3.07;0.47;;;;;;;;;;5048949;28;20152;-62
2022/09/27 10:43:45;;;;;;;1.27;0.33;;;;;;;;;;5038346;28;20057;-62
2022/09/27 10:46:20;;;;;;;1.10;0.33;;;;;;;;;;5048148;28;20052;-62
2022/09/27 10:48:46;;;;;;;1.17;0.30;;;;;;;;;;5047770;28;20053;-62
2022/09/27 10:51:38;;;;;;;1.57;0.43;;;;;;;;;;5048716;28;20055;-62
2022/09/27 10:54:05;;;;;;;13.97;0.73;;;;;;;;;;5043441;28;20098;-63
2022/09/27 10:56:32;;;;;;;1.73;0.27;;;;;;;;;;5047433;28;20407;-63
2022/09/27 10:58:59;;;;;;;0.40;0.10;;;;;;;;;;5047598;28;20048;-62
2022/09/27 11:01:26;;;;;;;1.37;0.40;;;;;;;;;;5034311;28;20135;-62
2022/09/27 11:03:57;;;;;;;3.17;0.30;;;;;;;;;;5028821;28;20049;-63
2022/09/27 11:06:23;;;;;;;2.60;0.30;;;;;;;;;;5027827;28;20045;-62
2022/09/27 11:08:50;;;;;;;0.40;0.10;;;;;;;;;;5027922;28;20112;-63
2022/09/27 11:11:21;;;;;;;1.07;0.30;;;;;;;;;;5028314;28;20415;-62
2022/09/27 11:14:04;;;;;;;5.57;0.30;;;;;;;;;;5037883;28;20187;-63
2022/09/27 11:16:33;;;;;;;5.17;0.50;;;;;;;;;;5047567;28;20518;-64
2022/09/27 11:19:02;;;;;;;2.10;0.77;;;;;;;;;;5048222;28;20053;-64
2022/09/27 11:21:44;;;;;;;1.10;0.33;;;;;;;;;;5047643;28;20056;-63
2022/09/27 11:24:20;;;;;;;1.33;0.30;;;;;;;;;;5048097;28;20048;-64
2022/09/27 11:27:04;;;;;;;1.20;0.30;;;;;;;;;;5047971;28;20604;-63
2022/09/27 11:29:49;;;;;;;2.37;0.27;;;;;;;;;;5047607;28;20139;-63
2022/09/27 11:32:38;;;;;;;1.70;0.13;;;;;;;;;;5048023;28;20499;-63
2022/09/27 11:35:10;;;;;;;2.33;0.20;;;;;;;;;;5019581;28;20060;-62
2022/09/27 11:37:42;;;;;;;1.57;0.37;;;;;;;;;;5048049;28;20571;-63
2022/09/27 11:40:08;;;;;;;0.30;0.20;;;;;;;;;;5047842;28;20095;-63
2022/09/27 11:42:43;;;;;;;1.00;0.20;;;;;;;;;;5046907;28;20048;-63
2022/09/27 11:45:28;;;;;;;0.90;0.10;;;;;;;;;;5047022;28;20470;-63
2022/09/27 11:47:55;;;;;;;2.03;0.20;;;;;;;;;;5047454;28;20519;-63
2022/09/27 11:50:40;;;;;;;0.70;0.30;;;;;;;;;;5046604;28;20057;-63
2022/09/27 11:53:06;;;;;;;2.30;0.37;;;;;;;;;;5047380;28;20053;-63
2022/09/27 11:55:32;;;;;;;0.20;0.10;;;;;;;;;;5047475;28;20048;-62
2022/09/27 11:58:19;;;;;;;1.33;0.73;;;;;;;;;;5047430;28;20052;-63
2022/09/27 12:01:01;;;;;;;1.80;0.30;;;;;;;;;;5046546;28;20045;-62
2022/09/27 12:03:46;;;;;;;0.97;0.20;;;;;;;;;;5047637;28;20537;-62
2022/09/27 12:06:21;;;;;;;3.17;0.40;;;;;;;;;;5047040;28;20131;-62
2022/09/27 12:09:09;;;;;;;2.37;0.60;;;;;;;;;;5047376;28;20084;-62
2022/09/27 12:11:38;;;;;;;5.83;0.60;;;;;;;;;;5046904;28;20049;-62
2022/09/27 12:14:34;;;;;;;2.87;0.80;;;;;;;;;;5047083;28;20057;-62
2022/09/27 12:17:02;;;;;;;2.93;0.83;;;;;;;;;;5034126;28;20590;-62
2022/09/27 12:19:30;;;;;;;4.50;0.73;;;;;;;;;;5049083;28;20127;-62
2022/09/27 12:21:57;;;;;;;3.73;0.67;;;;;;;;;;5051372;28;20041;-62
2022/09/27 12:24:24;;;;;;;3.90;1.10;;;;;;;;;;5051139;28;20051;-62
2022/09/27 12:26:54;;;;;;;5.17;0.60;;;;;;;;;;5050903;28;20110;-62
2022/09/27 12:29:24;;;;;;;4.73;0.60;;;;;;;;;;5051198;28;20415;-62
2022/09/27 12:32:09;;;;;;;2.83;0.53;;;;;;;;;;5051594;28;20107;-62
2022/09/27 12:34:44;;;;;;;3.53;0.53;;;;;;;;;;5050361;28;20091;-62
2022/09/27 12:37:20;;;;;;;3.70;0.43;;;;;;;;;;5051232;28;20048;-62
2022/09/27 12:39:48;;;;;;;3.07;0.83;;;;;;;;;;5051328;28;20052;-62
2022/09/27 12:42:20;;;;;;;1.30;0.37;;;;;;;;;;5050982;28;20048;-61
2022/09/27 12:44:47;;;;;;;1.90;0.30;;;;;;;;;;5051037;28;20414;-61
2022/09/27 12:47:34;;;;;;;5.30;0.80;;;;;;;;;;5050754;28;20061;-61
2022/09/27 12:50:00;;;;;;;3.07;0.43;;;;;;;;;;5050928;28;20053;-61
2022/09/27 12:52:29;;;;;;;1.77;0.47;;;;;;;;;;5050687;28;20128;-61
2022/09/27 12:55:01;;;;;;;4.10;0.50;;;;;;;;;;5050224;28;20045;-61
2022/09/27 12:57:30;;;;;;;1.97;0.33;;;;;;;;;;5050646;28;20044;-61
2022/09/27 13:00:03;;;;;;;3.43;0.70;;;;;;;;;;5049722;28;20051;-61
2022/09/27 13:02:51;;;;;;;2.88;0.60;;;;;;;;;;5050729;28;20045;-61
2022/09/27 13:05:29;;;;;;;2.57;0.60;;;;;;;;;;5050889;28;20044;-61
2022/09/27 13:08:14;;;;;;;3.43;0.90;;;;;;;;;;5050811;28;20252;-61
2022/09/27 13:10:40;;;;;;;0.97;0.23;;;;;;;;;;5049636;28;20080;-61
2022/09/27 13:13:11;;;;;;;1.90;0.47;;;;;;;;;;5050417;28;20041;-60
2022/09/27 13:15:38;;;;;;;2.47;0.40;;;;;;;;;;5049932;28;20052;-61
2022/09/27 13:18:07;;;;;;;2.50;0.60;;;;;;;;;;5050016;28;20063;-62
2022/09/27 13:20:36;;;;;;;2.90;0.87;;;;;;;;;;5050034;28;20104;-61
2022/09/27 13:23:20;;;;;;;1.20;0.37;;;;;;;;;;5049984;28;20095;-61
2022/09/27 13:25:47;;;;;;;3.77;0.80;;;;;;;;;;5050653;28;20356;-61
2022/09/27 13:28:31;;;;;;;3.90;0.60;;;;;;;;;;5049937;28;20417;-61
2022/09/27 13:31:05;;;;;;;1.73;0.43;;;;;;;;;;5049255;28;20048;-62
2022/09/27 13:33:33;;;;;;;2.43;0.57;;;;;;;;;;5050465;28;20045;-61
2022/09/27 13:36:27;;;;;;;3.33;0.60;;;;;;;;;;5049671;28;20114;-61
2022/09/27 13:38:54;;;;;;;;;;;;;;;;;;5048651;28;20060;-61
2022/09/27 13:41:20;;;;;;;1.30;0.20;;;;;;;;;;5049257;28;19928;-61
2022/09/27 13:44:01;;;;;;;1.87;0.17;;;;;;;;;;5050380;28;20049;-61
2022/09/27 13:46:28;;;;;;;1.97;0.30;;;;;;;;;;5049327;28;20053;-61
2022/09/27 13:49:03;;;;;;;0.77;0.20;;;;;;;;;;5050005;28;20067;-61
2022/09/27 13:51:48;;;;;;;1.57;0.20;;;;;;;;;;5049639;28;20076;-61
2022/09/27 13:54:33;;;;;;;0.30;0.10;;;;;;;;;;5049608;28;20048;-61
2022/09/27 13:56:59;;;;;;;0.40;0.10;;;;;;;;;;5049786;28;20478;-61
2022/09/27 13:59:34;;;;;;;2.53;1.07;;;;;;;;;;5049431;28;20049;-61
2022/09/27 14:02:06;;;;;;;1.07;0.10;;;;;;;;;;5049092;28;20041;-61
2022/09/27 14:04:36;;;;;;;1.70;0.27;;;;;;;;;;5049578;28;20041;-61
2022/09/27 14:07:03;;;;;;;5.07;0.70;;;;;;;;;;5048935;28;20045;-61
2022/09/27 14:09:32;;;;;;;2.53;0.20;;;;;;;;;;5047779;28;20053;-61
2022/09/27 14:11:59;;;;;;;0.73;0.23;;;;;;;;;;5048171;28;20050;-61
2022/09/27 14:14:27;;;;;;;1.70;0.37;;;;;;;;;;5049015;28;20077;-61
2022/09/27 14:16:53;;;;;;;1.47;0.50;;;;;;;;;;5048412;28;20044;-61
2022/09/27 14:19:20;;;;;;;4.70;0.70;;;;;;;;;;5049431;28;20332;-61
2022/09/27 14:21:47;;;;;;;3.30;0.70;;;;;;;;;;5049668;28;20076;-61
2022/09/27 14:24:27;;;;;;;5.20;1.50;;;;;;;;;;5049095;28;20494;-61
2022/09/27 14:27:20;;;;;;;4.33;0.90;;;;;;;;;;5049232;28;20045;-61
2022/09/27 14:29:55;;;;;;;6.20;1.90;;;;;;;;;;5045314;28;20055;-61
2022/09/27 14:32:31;;;;;;;4.07;0.90;;;;;;;;;;5048860;28;20052;-61
2022/09/27 14:35:05;;;;;;;6.90;1.13;;;;;;;;;;5048833;28;20178;-61
2022/09/27 14:37:31;;;;;;;2.10;0.63;;;;;;;;;;5049081;28;20048;-61
2022/09/27 14:40:07;;;;;;;4.27;0.80;;;;;;;;;;5049047;28;20269;-61
2022/09/27 14:42:36;;;;;;;3.23;0.53;;;;;;;;;;5047286;28;20052;-61
2022/09/27 14:45:21;;;;;;;2.67;1.00;;;;;;;;;;5048976;28;20045;-61
2022/09/27 14:47:47;;;;;;;3.37;0.70;;;;;;;;;;5048242;28;20049;-61
2022/09/27 14:50:24;;;;;;;2.23;0.87;;;;;;;;;;5048486;28;20045;-61
2022/09/27 14:52:55;;;;;;;3.90;0.70;;;;;;;;;;5048879;28;20044;-61
2022/09/27 14:55:22;;;;;;;3.77;1.10;;;;;;;;;;5048866;28;20611;-61
2022/09/27 14:57:56;;;;;;;2.80;0.73;;;;;;;;;;5048399;28;20128;-61
2022/09/27 15:00:30;;;;;;;3.00;0.53;;;;;;;;;;5047847;28;20041;-60
2022/09/27 15:02:58;;;;;;;5.23;0.80;;;;;;;;;;5048107;28;20063;-61
2022/09/27 15:05:28;;;;;;;3.80;0.60;;;;;;;;;;5048927;28;20040;-61
2022/09/27 15:07:57;;;;;;;4.30;0.60;;;;;;;;;;5048673;28;20063;-61
2022/09/27 15:10:30;;;;;;;3.00;1.27;;;;;;;;;;5048206;28;20056;-61
2022/09/27 15:12:59;;;;;;;4.47;0.90;;;;;;;;;;5048572;28;20699;-61